sensor_id;sensor_type;location;lat;lon;timestamp;temperature;humidity
1546;DHT22;766;51.502;9.752;2023-04-21T00:01:32;7.70;99.90
1546;DHT22;766;51.502;9.752;2023-04-21T00:04:01;7.80;99.90
1546;DHT22;766;51.502;9.752;2023-04-21T00:06:29;7.80;99.90
1546;DHT22;766;51.502;9.752;2023-04-21T00:08:58;7.80;99.90
1546;DHT22;766;51.502;9.752;2023-04-21T00:11:26;7.80;99.90
1546;DHT22;766;51.502;9.752;2023-04-21T00:13:56;7.80;99.90
1546;DHT22;766;51.502;9.752;2023-04-21T00:16:24;7.80;99.90
1546;DHT22;766;51.502;9.752;2023-04-21T00:18:53;7.80;99.90
1546;DHT22;766;51.502;9.752;2023-04-21T00:21:23;7.90;99.90
1546;DHT22;766;51.502;9.752;2023-04-21T00:24:04;7.90;99.90
1546;DHT22;766;51.502;9.752;2023-04-21T00:26:32;7.80;99.90
1546;DHT22;766;51.502;9.752;2023-04-21T00:29:02;7.90;99.90
1546;DHT22;766;51.502;9.752;2023-04-21T00:31:37;7.90;99.90
1546;DHT22;766;51.502;9.752;2023-04-21T00:34:05;7.90;99.90
1546;DHT22;766;51.502;9.752;2023-04-21T00:36:34;7.90;99.90
1546;DHT22;766;51.502;9.752;2023-04-21T00:39:02;8.00;99.90
1546;DHT22;766;51.502;9.752;2023-04-21T00:41:38;8.00;99.90
1546;DHT22;766;51.502;9.752;2023-04-21T00:44:08;8.00;99.90
1546;DHT22;766;51.502;9.752;2023-04-21T00:46:37;8.10;99.90
1546;DHT22;766;51.502;9.752;2023-04-21T00:49:06;8.20;99.90
1546;DHT22;766;51.502;9.752;2023-04-21T00:51:35;8.20;99.90
1546;DHT22;766;51.502;9.752;2023-04-21T00:54:05;8.20;99.90
1546;DHT22;766;51.502;9.752;2023-04-21T00:56:34;8.20;99.90
1546;DHT22;766;51.502;9.752;2023-04-21T00:59:03;8.20;99.90
1546;DHT22;766;51.502;9.752;2023-04-21T01:01:33;8.20;99.90
1546;DHT22;766;51.502;9.752;2023-04-21T01:04:03;8.10;99.90
1546;DHT22;766;51.502;9.752;2023-04-21T01:06:32;8.10;99.90
1546;DHT22;766;51.502;9.752;2023-04-21T01:09:01;8.10;99.90
1546;DHT22;766;51.502;9.752;2023-04-21T01:11:30;8.20;99.90
1546;DHT22;766;51.502;9.752;2023-04-21T01:13:59;8.20;99.90
1546;DHT22;766;51.502;9.752;2023-04-21T01:16:27;8.10;99.90
1546;DHT22;766;51.502;9.752;2023-04-21T01:19:04;8.10;99.90
1546;DHT22;766;51.502;9.752;2023-04-21T01:21:39;8.00;99.90
1546;DHT22;766;51.502;9.752;2023-04-21T01:24:08;8.00;99.90
1546;DHT22;766;51.502;9.752;2023-04-21T01:26:37;8.00;99.90
1546;DHT22;766;51.502;9.752;2023-04-21T01:29:06;8.00;99.90
1546;DHT22;766;51.502;9.752;2023-04-21T01:31:34;8.00;99.90
1546;DHT22;766;51.502;9.752;2023-04-21T01:34:03;8.00;99.90
1546;DHT22;766;51.502;9.752;2023-04-21T01:36:31;8.00;99.90
1546;DHT22;766;51.502;9.752;2023-04-21T01:39:02;8.00;99.90
1546;DHT22;766;51.502;9.752;2023-04-21T01:41:31;8.00;99.90
1546;DHT22;766;51.502;9.752;2023-04-21T01:43:59;8.00;99.90
1546;DHT22;766;51.502;9.752;2023-04-21T01:46:28;8.00;99.90
1546;DHT22;766;51.502;9.752;2023-04-21T01:48:57;8.00;99.90
1546;DHT22;766;51.502;9.752;2023-04-21T01:51:25;8.00;99.90
1546;DHT22;766;51.502;9.752;2023-04-21T01:53:54;8.00;99.90
1546;DHT22;766;51.502;9.752;2023-04-21T01:56:24;8.00;99.90
1546;DHT22;766;51.502;9.752;2023-04-21T01:58:52;7.90;99.90
1546;DHT22;766;51.502;9.752;2023-04-21T02:01:21;7.90;99.90
1546;DHT22;766;51.502;9.752;2023-04-21T02:03:49;7.80;99.90
1546;DHT22;766;51.502;9.752;2023-04-21T02:06:18;7.80;99.90
1546;DHT22;766;51.502;9.752;2023-04-21T02:08:47;7.80;99.90
1546;DHT22;766;51.502;9.752;2023-04-21T02:11:16;7.80;99.90
1546;DHT22;766;51.502;9.752;2023-04-21T02:13:46;7.80;99.90
1546;DHT22;766;51.502;9.752;2023-04-21T02:16:14;7.80;99.90
1546;DHT22;766;51.502;9.752;2023-04-21T02:18:42;7.90;99.90
1546;DHT22;766;51.502;9.752;2023-04-21T02:21:10;7.90;99.90
1546;DHT22;766;51.502;9.752;2023-04-21T02:23:39;7.80;99.90
1546;DHT22;766;51.502;9.752;2023-04-21T02:26:07;7.80;99.90
1546;DHT22;766;51.502;9.752;2023-04-21T02:28:36;7.70;99.90
1546;DHT22;766;51.502;9.752;2023-04-21T02:31:06;7.70;99.90
1546;DHT22;766;51.502;9.752;2023-04-21T02:33:34;7.70;99.90
1546;DHT22;766;51.502;9.752;2023-04-21T02:36:06;7.60;99.90
1546;DHT22;766;51.502;9.752;2023-04-21T02:38:35;7.50;99.90
1546;DHT22;766;51.502;9.752;2023-04-21T02:41:05;7.60;99.90
1546;DHT22;766;51.502;9.752;2023-04-21T02:43:34;7.50;99.90
1546;DHT22;766;51.502;9.752;2023-04-21T02:46:06;7.50;99.90
1546;DHT22;766;51.502;9.752;2023-04-21T02:48:35;7.60;99.90
1546;DHT22;766;51.502;9.752;2023-04-21T02:51:04;7.60;99.90
1546;DHT22;766;51.502;9.752;2023-04-21T02:53:32;7.40;99.90
1546;DHT22;766;51.502;9.752;2023-04-21T02:56:01;7.40;99.90
1546;DHT22;766;51.502;9.752;2023-04-21T02:58:30;7.50;99.90
1546;DHT22;766;51.502;9.752;2023-04-21T03:01:02;7.60;99.90
1546;DHT22;766;51.502;9.752;2023-04-21T03:03:32;7.60;99.90
1546;DHT22;766;51.502;9.752;2023-04-21T03:06:02;7.60;99.90
1546;DHT22;766;51.502;9.752;2023-04-21T03:08:31;7.70;99.90
1546;DHT22;766;51.502;9.752;2023-04-21T03:11:00;7.70;99.90
1546;DHT22;766;51.502;9.752;2023-04-21T03:13:31;7.80;99.90
1546;DHT22;766;51.502;9.752;2023-04-21T03:21:01;7.60;99.90
1546;DHT22;766;51.502;9.752;2023-04-21T03:23:30;7.50;99.90
1546;DHT22;766;51.502;9.752;2023-04-21T03:25:59;7.30;99.90
1546;DHT22;766;51.502;9.752;2023-04-21T03:28:27;7.20;99.90
1546;DHT22;766;51.502;9.752;2023-04-21T03:30:56;7.20;99.90
1546;DHT22;766;51.502;9.752;2023-04-21T03:33:24;7.10;99.90
1546;DHT22;766;51.502;9.752;2023-04-21T03:35:53;7.10;99.90
1546;DHT22;766;51.502;9.752;2023-04-21T03:38:23;7.10;99.90
1546;DHT22;766;51.502;9.752;2023-04-21T03:40:54;7.10;99.90
1546;DHT22;766;51.502;9.752;2023-04-21T03:43:23;7.00;99.90
1546;DHT22;766;51.502;9.752;2023-04-21T03:45:51;7.00;99.90
1546;DHT22;766;51.502;9.752;2023-04-21T03:48:20;6.90;99.90
1546;DHT22;766;51.502;9.752;2023-04-21T03:50:48;6.90;99.90
1546;DHT22;766;51.502;9.752;2023-04-21T03:53:17;6.90;99.90
1546;DHT22;766;51.502;9.752;2023-04-21T03:55:49;6.90;99.90
1546;DHT22;766;51.502;9.752;2023-04-21T03:58:17;7.00;99.90
1546;DHT22;766;51.502;9.752;2023-04-21T04:00:45;7.00;99.90
1546;DHT22;766;51.502;9.752;2023-04-21T04:03:14;7.00;99.90
1546;DHT22;766;51.502;9.752;2023-04-21T04:05:42;7.20;99.90
1546;DHT22;766;51.502;9.752;2023-04-21T04:08:11;7.50;99.90
1546;DHT22;766;51.502;9.752;2023-04-21T04:10:39;7.60;99.90
1546;DHT22;766;51.502;9.752;2023-04-21T04:13:12;7.80;99.90
1546;DHT22;766;51.502;9.752;2023-04-21T04:15:40;7.80;99.90
1546;DHT22;766;51.502;9.752;2023-04-21T04:18:09;7.90;99.90
1546;DHT22;766;51.502;9.752;2023-04-21T04:20:38;7.90;99.90
1546;DHT22;766;51.502;9.752;2023-04-21T04:23:06;7.90;99.90
1546;DHT22;766;51.502;9.752;2023-04-21T04:25:35;8.00;99.90
1546;DHT22;766;51.502;9.752;2023-04-21T04:28:05;8.00;99.90
1546;DHT22;766;51.502;9.752;2023-04-21T04:30:37;7.90;99.90
1546;DHT22;766;51.502;9.752;2023-04-21T04:33:11;8.00;99.90
1546;DHT22;766;51.502;9.752;2023-04-21T04:35:40;8.00;99.90
1546;DHT22;766;51.502;9.752;2023-04-21T04:38:09;8.10;99.90
1546;DHT22;766;51.502;9.752;2023-04-21T04:40:38;8.10;99.90
1546;DHT22;766;51.502;9.752;2023-04-21T04:43:08;8.10;99.90
1546;DHT22;766;51.502;9.752;2023-04-21T04:45:38;8.10;99.90
1546;DHT22;766;51.502;9.752;2023-04-21T04:48:07;8.10;99.90
1546;DHT22;766;51.502;9.752;2023-04-21T04:50:35;8.20;99.90
1546;DHT22;766;51.502;9.752;2023-04-21T04:53:04;8.20;99.90
1546;DHT22;766;51.502;9.752;2023-04-21T04:55:32;8.20;99.90
1546;DHT22;766;51.502;9.752;2023-04-21T04:58:01;8.20;99.90
1546;DHT22;766;51.502;9.752;2023-04-21T05:00:29;8.20;99.90
1546;DHT22;766;51.502;9.752;2023-04-21T05:02:59;8.20;99.90
1546;DHT22;766;51.502;9.752;2023-04-21T05:05:28;8.20;99.90
1546;DHT22;766;51.502;9.752;2023-04-21T05:07:57;8.30;99.90
1546;DHT22;766;51.502;9.752;2023-04-21T05:10:27;8.30;99.90
1546;DHT22;766;51.502;9.752;2023-04-21T05:12:56;8.40;99.90
1546;DHT22;766;51.502;9.752;2023-04-21T05:15:25;8.30;99.90
1546;DHT22;766;51.502;9.752;2023-04-21T05:17:53;8.30;99.90
1546;DHT22;766;51.502;9.752;2023-04-21T05:20:23;8.40;99.90
1546;DHT22;766;51.502;9.752;2023-04-21T05:22:52;8.40;99.90
1546;DHT22;766;51.502;9.752;2023-04-21T05:25:20;8.40;99.90
1546;DHT22;766;51.502;9.752;2023-04-21T05:27:48;8.50;99.90
1546;DHT22;766;51.502;9.752;2023-04-21T05:30:16;8.50;99.90
1546;DHT22;766;51.502;9.752;2023-04-21T05:32:45;8.50;99.90
1546;DHT22;766;51.502;9.752;2023-04-21T05:35:14;8.70;99.90
1546;DHT22;766;51.502;9.752;2023-04-21T05:37:45;8.80;99.90
1546;DHT22;766;51.502;9.752;2023-04-21T05:40:14;8.90;99.90
1546;DHT22;766;51.502;9.752;2023-04-21T05:42:42;8.90;99.90
1546;DHT22;766;51.502;9.752;2023-04-21T05:45:10;8.90;99.90
1546;DHT22;766;51.502;9.752;2023-04-21T05:47:39;9.10;99.90
1546;DHT22;766;51.502;9.752;2023-04-21T05:50:07;9.00;99.90
1546;DHT22;766;51.502;9.752;2023-04-21T05:52:36;9.10;99.90
1546;DHT22;766;51.502;9.752;2023-04-21T05:55:07;9.20;99.90
1546;DHT22;766;51.502;9.752;2023-04-21T05:57:35;9.20;99.90
1546;DHT22;766;51.502;9.752;2023-04-21T06:00:05;9.30;99.90
1546;DHT22;766;51.502;9.752;2023-04-21T06:02:33;9.40;99.90
1546;DHT22;766;51.502;9.752;2023-04-21T06:05:02;9.50;99.90
1546;DHT22;766;51.502;9.752;2023-04-21T06:07:32;9.40;99.90
1546;DHT22;766;51.502;9.752;2023-04-21T06:10:03;9.70;99.90
1546;DHT22;766;51.502;9.752;2023-04-21T06:12:34;9.70;99.90
1546;DHT22;766;51.502;9.752;2023-04-21T06:15:05;9.80;99.90
1546;DHT22;766;51.502;9.752;2023-04-21T06:17:51;9.90;99.90
1546;DHT22;766;51.502;9.752;2023-04-21T06:20:25;10.10;99.90
1546;DHT22;766;51.502;9.752;2023-04-21T06:23:08;10.20;99.90
1546;DHT22;766;51.502;9.752;2023-04-21T06:28:45;10.50;99.90
1546;DHT22;766;51.502;9.752;2023-04-21T06:31:13;10.50;99.90
1546;DHT22;766;51.502;9.752;2023-04-21T06:33:44;10.40;99.90
1546;DHT22;766;51.502;9.752;2023-04-21T06:36:13;10.60;99.90
1546;DHT22;766;51.502;9.752;2023-04-21T06:38:44;10.70;99.90
1546;DHT22;766;51.502;9.752;2023-04-21T06:41:15;11.20;99.90
1546;DHT22;766;51.502;9.752;2023-04-21T06:43:46;11.20;99.90
1546;DHT22;766;51.502;9.752;2023-04-21T06:46:14;11.50;99.90
1546;DHT22;766;51.502;9.752;2023-04-21T06:48:42;11.10;99.90
1546;DHT22;766;51.502;9.752;2023-04-21T06:51:11;11.60;99.90
1546;DHT22;766;51.502;9.752;2023-04-21T06:53:40;11.70;99.90
1546;DHT22;766;51.502;9.752;2023-04-21T06:56:08;11.50;99.90
1546;DHT22;766;51.502;9.752;2023-04-21T06:58:36;11.60;99.90
1546;DHT22;766;51.502;9.752;2023-04-21T07:01:06;11.90;99.90
1546;DHT22;766;51.502;9.752;2023-04-21T07:03:35;11.80;99.90
1546;DHT22;766;51.502;9.752;2023-04-21T07:06:04;11.90;99.90
1546;DHT22;766;51.502;9.752;2023-04-21T07:08:34;12.20;99.90
1546;DHT22;766;51.502;9.752;2023-04-21T07:11:02;12.80;99.90
1546;DHT22;766;51.502;9.752;2023-04-21T07:13:34;12.40;99.90
1546;DHT22;766;51.502;9.752;2023-04-21T07:16:07;12.60;99.90
1546;DHT22;766;51.502;9.752;2023-04-21T07:18:38;13.00;99.90
1546;DHT22;766;51.502;9.752;2023-04-21T07:21:07;13.60;99.90
1546;DHT22;766;51.502;9.752;2023-04-21T07:23:36;13.20;99.90
1546;DHT22;766;51.502;9.752;2023-04-21T07:26:05;13.60;99.90
1546;DHT22;766;51.502;9.752;2023-04-21T07:28:33;13.90;99.90
1546;DHT22;766;51.502;9.752;2023-04-21T07:31:02;13.20;99.90
1546;DHT22;766;51.502;9.752;2023-04-21T07:33:32;13.20;99.90
1546;DHT22;766;51.502;9.752;2023-04-21T07:36:01;13.30;99.90
1546;DHT22;766;51.502;9.752;2023-04-21T07:38:29;14.00;99.90
1546;DHT22;766;51.502;9.752;2023-04-21T07:40:58;13.80;99.90
1546;DHT22;766;51.502;9.752;2023-04-21T07:43:26;14.20;99.90
1546;DHT22;766;51.502;9.752;2023-04-21T07:45:56;14.30;99.90
1546;DHT22;766;51.502;9.752;2023-04-21T07:48:25;14.50;99.90
1546;DHT22;766;51.502;9.752;2023-04-21T07:50:55;15.70;99.90
1546;DHT22;766;51.502;9.752;2023-04-21T07:53:24;16.40;99.90
1546;DHT22;766;51.502;9.752;2023-04-21T07:55:53;14.90;99.90
1546;DHT22;766;51.502;9.752;2023-04-21T07:58:21;15.00;99.90
1546;DHT22;766;51.502;9.752;2023-04-21T08:00:50;15.10;99.90
1546;DHT22;766;51.502;9.752;2023-04-21T08:03:18;15.70;99.90
1546;DHT22;766;51.502;9.752;2023-04-21T08:05:50;15.70;99.90
1546;DHT22;766;51.502;9.752;2023-04-21T08:08:21;16.40;99.90
1546;DHT22;766;51.502;9.752;2023-04-21T08:10:49;16.90;99.90
1546;DHT22;766;51.502;9.752;2023-04-21T08:13:18;16.70;99.90
1546;DHT22;766;51.502;9.752;2023-04-21T08:15:47;17.30;99.90
1546;DHT22;766;51.502;9.752;2023-04-21T08:18:16;16.50;99.90
1546;DHT22;766;51.502;9.752;2023-04-21T08:20:48;16.20;99.90
1546;DHT22;766;51.502;9.752;2023-04-21T08:23:20;16.30;99.90
1546;DHT22;766;51.502;9.752;2023-04-21T08:25:48;16.90;99.90
1546;DHT22;766;51.502;9.752;2023-04-21T08:28:17;16.30;99.90
1546;DHT22;766;51.502;9.752;2023-04-21T08:30:45;16.50;99.90
1546;DHT22;766;51.502;9.752;2023-04-21T08:33:14;17.00;99.90
1546;DHT22;766;51.502;9.752;2023-04-21T08:35:42;18.20;99.90
1546;DHT22;766;51.502;9.752;2023-04-21T08:38:30;16.70;99.90
1546;DHT22;766;51.502;9.752;2023-04-21T08:40:59;17.40;99.90
1546;DHT22;766;51.502;9.752;2023-04-21T08:43:28;17.60;99.90
1546;DHT22;766;51.502;9.752;2023-04-21T08:45:57;16.30;99.90
1546;DHT22;766;51.502;9.752;2023-04-21T08:48:27;16.70;99.90
1546;DHT22;766;51.502;9.752;2023-04-21T08:50:57;17.00;99.90
1546;DHT22;766;51.502;9.752;2023-04-21T08:53:25;17.50;99.90
1546;DHT22;766;51.502;9.752;2023-04-21T08:55:55;17.90;99.90
1546;DHT22;766;51.502;9.752;2023-04-21T08:58:36;18.30;99.90
1546;DHT22;766;51.502;9.752;2023-04-21T09:01:04;18.40;99.90
1546;DHT22;766;51.502;9.752;2023-04-21T09:03:33;18.20;99.90
1546;DHT22;766;51.502;9.752;2023-04-21T09:06:03;18.20;99.90
1546;DHT22;766;51.502;9.752;2023-04-21T09:08:33;17.40;99.90
1546;DHT22;766;51.502;9.752;2023-04-21T09:11:03;16.60;99.90
1546;DHT22;766;51.502;9.752;2023-04-21T09:13:33;17.30;99.90
1546;DHT22;766;51.502;9.752;2023-04-21T09:16:02;17.90;99.90
1546;DHT22;766;51.502;9.752;2023-04-21T09:18:36;17.40;99.90
1546;DHT22;766;51.502;9.752;2023-04-21T09:21:08;17.10;99.90
1546;DHT22;766;51.502;9.752;2023-04-21T09:23:41;17.50;99.90
1546;DHT22;766;51.502;9.752;2023-04-21T09:26:11;17.80;99.90
1546;DHT22;766;51.502;9.752;2023-04-21T09:28:40;16.60;99.90
1546;DHT22;766;51.502;9.752;2023-04-21T09:31:13;17.50;99.90
1546;DHT22;766;51.502;9.752;2023-04-21T09:33:49;18.30;99.90
1546;DHT22;766;51.502;9.752;2023-04-21T09:36:22;18.90;99.90
1546;DHT22;766;51.502;9.752;2023-04-21T09:38:55;18.40;99.90
1546;DHT22;766;51.502;9.752;2023-04-21T09:41:45;17.90;99.90
1546;DHT22;766;51.502;9.752;2023-04-21T09:44:14;19.30;99.90
1546;DHT22;766;51.502;9.752;2023-04-21T09:46:46;19.10;99.90
1546;DHT22;766;51.502;9.752;2023-04-21T09:49:16;18.10;99.90
1546;DHT22;766;51.502;9.752;2023-04-21T09:51:45;17.80;99.90
1546;DHT22;766;51.502;9.752;2023-04-21T09:54:17;17.60;99.90
1546;DHT22;766;51.502;9.752;2023-04-21T09:57:00;18.00;99.90
1546;DHT22;766;51.502;9.752;2023-04-21T09:59:31;18.50;99.90
1546;DHT22;766;51.502;9.752;2023-04-21T10:02:00;18.00;99.90
1546;DHT22;766;51.502;9.752;2023-04-21T10:04:35;18.80;99.90
1546;DHT22;766;51.502;9.752;2023-04-21T10:07:05;19.20;99.90
1546;DHT22;766;51.502;9.752;2023-04-21T10:09:39;18.20;99.90
1546;DHT22;766;51.502;9.752;2023-04-21T10:12:10;17.40;99.90
1546;DHT22;766;51.502;9.752;2023-04-21T10:14:40;17.90;99.90
1546;DHT22;766;51.502;9.752;2023-04-21T10:17:10;18.80;99.90
1546;DHT22;766;51.502;9.752;2023-04-21T10:19:47;18.90;99.90
1546;DHT22;766;51.502;9.752;2023-04-21T10:22:25;18.00;99.90
1546;DHT22;766;51.502;9.752;2023-04-21T10:24:55;17.10;99.90
1546;DHT22;766;51.502;9.752;2023-04-21T10:27:32;17.80;99.90
1546;DHT22;766;51.502;9.752;2023-04-21T10:30:18;18.60;99.90
1546;DHT22;766;51.502;9.752;2023-04-21T10:32:46;18.40;99.90
1546;DHT22;766;51.502;9.752;2023-04-21T10:35:21;19.60;99.90
1546;DHT22;766;51.502;9.752;2023-04-21T10:37:50;18.60;99.90
1546;DHT22;766;51.502;9.752;2023-04-21T10:40:35;18.20;99.90
1546;DHT22;766;51.502;9.752;2023-04-21T10:46:31;18.00;99.90
1546;DHT22;766;51.502;9.752;2023-04-21T10:49:09;18.40;99.90
1546;DHT22;766;51.502;9.752;2023-04-21T10:52:03;18.70;99.90
1546;DHT22;766;51.502;9.752;2023-04-21T10:54:42;18.10;99.90
1546;DHT22;766;51.502;9.752;2023-04-21T10:57:13;19.50;99.90
1546;DHT22;766;51.502;9.752;2023-04-21T10:59:43;20.00;99.90
1546;DHT22;766;51.502;9.752;2023-04-21T11:02:13;19.50;99.90
1546;DHT22;766;51.502;9.752;2023-04-21T11:04:43;18.60;99.90
1546;DHT22;766;51.502;9.752;2023-04-21T11:07:16;19.50;99.90
1546;DHT22;766;51.502;9.752;2023-04-21T11:09:45;18.30;99.90
1546;DHT22;766;51.502;9.752;2023-04-21T11:12:16;18.90;99.90
1546;DHT22;766;51.502;9.752;2023-04-21T11:14:53;18.70;99.90
1546;DHT22;766;51.502;9.752;2023-04-21T11:17:36;18.60;99.90
1546;DHT22;766;51.502;9.752;2023-04-21T11:20:07;18.40;99.90
1546;DHT22;766;51.502;9.752;2023-04-21T11:22:36;18.20;99.90
1546;DHT22;766;51.502;9.752;2023-04-21T11:25:14;18.70;99.90
1546;DHT22;766;51.502;9.752;2023-04-21T11:27:52;19.50;99.90
1546;DHT22;766;51.502;9.752;2023-04-21T11:30:30;20.00;99.90
1546;DHT22;766;51.502;9.752;2023-04-21T11:33:00;18.60;99.90
1546;DHT22;766;51.502;9.752;2023-04-21T11:35:30;18.90;99.90
1546;DHT22;766;51.502;9.752;2023-04-21T11:38:03;19.80;99.90
1546;DHT22;766;51.502;9.752;2023-04-21T11:40:44;20.40;99.90
1546;DHT22;766;51.502;9.752;2023-04-21T11:43:12;19.50;99.90
1546;DHT22;766;51.502;9.752;2023-04-21T11:45:42;18.90;99.90
1546;DHT22;766;51.502;9.752;2023-04-21T11:48:14;18.10;99.90
1546;DHT22;766;51.502;9.752;2023-04-21T11:50:49;18.10;99.90
1546;DHT22;766;51.502;9.752;2023-04-21T11:53:18;18.40;99.90
1546;DHT22;766;51.502;9.752;2023-04-21T11:55:47;19.40;99.90
1546;DHT22;766;51.502;9.752;2023-04-21T11:58:15;18.70;99.90
1546;DHT22;766;51.502;9.752;2023-04-21T12:00:45;19.30;99.90
1546;DHT22;766;51.502;9.752;2023-04-21T12:03:14;18.90;99.90
1546;DHT22;766;51.502;9.752;2023-04-21T12:05:43;18.00;99.90
1546;DHT22;766;51.502;9.752;2023-04-21T12:08:15;17.90;99.90
1546;DHT22;766;51.502;9.752;2023-04-21T12:10:44;18.50;99.90
1546;DHT22;766;51.502;9.752;2023-04-21T12:13:20;18.50;99.90
1546;DHT22;766;51.502;9.752;2023-04-21T12:15:50;19.00;99.90
1546;DHT22;766;51.502;9.752;2023-04-21T12:18:19;18.30;99.90
1546;DHT22;766;51.502;9.752;2023-04-21T12:20:48;18.70;99.90
1546;DHT22;766;51.502;9.752;2023-04-21T12:23:17;18.90;99.90
1546;DHT22;766;51.502;9.752;2023-04-21T12:25:46;18.40;99.90
1546;DHT22;766;51.502;9.752;2023-04-21T12:28:15;18.10;99.90
1546;DHT22;766;51.502;9.752;2023-04-21T12:30:44;18.60;99.90
1546;DHT22;766;51.502;9.752;2023-04-21T12:33:14;18.50;99.90
1546;DHT22;766;51.502;9.752;2023-04-21T12:35:43;18.50;99.90
1546;DHT22;766;51.502;9.752;2023-04-21T12:38:11;18.50;99.90
1546;DHT22;766;51.502;9.752;2023-04-21T12:40:39;18.30;99.90
1546;DHT22;766;51.502;9.752;2023-04-21T12:43:08;18.20;99.90
1546;DHT22;766;51.502;9.752;2023-04-21T12:45:36;18.00;99.90
1546;DHT22;766;51.502;9.752;2023-04-21T12:48:05;18.10;99.90
1546;DHT22;766;51.502;9.752;2023-04-21T12:50:34;18.00;99.90
1546;DHT22;766;51.502;9.752;2023-04-21T12:53:03;17.90;99.90
1546;DHT22;766;51.502;9.752;2023-04-21T12:55:33;18.20;99.90
1546;DHT22;766;51.502;9.752;2023-04-21T12:58:02;18.20;99.90
1546;DHT22;766;51.502;9.752;2023-04-21T13:00:30;18.80;99.90
1546;DHT22;766;51.502;9.752;2023-04-21T13:03:01;18.10;99.90
1546;DHT22;766;51.502;9.752;2023-04-21T13:05:30;17.90;99.90
1546;DHT22;766;51.502;9.752;2023-04-21T13:08:00;17.60;99.90
1546;DHT22;766;51.502;9.752;2023-04-21T13:10:29;17.40;99.90
1546;DHT22;766;51.502;9.752;2023-04-21T13:12:57;17.80;99.90
1546;DHT22;766;51.502;9.752;2023-04-21T13:15:26;17.60;99.90
1546;DHT22;766;51.502;9.752;2023-04-21T13:17:55;17.50;99.90
1546;DHT22;766;51.502;9.752;2023-04-21T13:20:24;17.70;99.90
1546;DHT22;766;51.502;9.752;2023-04-21T13:22:52;17.60;99.90
1546;DHT22;766;51.502;9.752;2023-04-21T13:25:22;18.00;99.90
1546;DHT22;766;51.502;9.752;2023-04-21T13:27:51;18.10;99.90
1546;DHT22;766;51.502;9.752;2023-04-21T13:30:20;18.20;99.90
1546;DHT22;766;51.502;9.752;2023-04-21T13:32:49;18.10;99.90
1546;DHT22;766;51.502;9.752;2023-04-21T13:35:17;17.90;99.90
1546;DHT22;766;51.502;9.752;2023-04-21T13:37:46;17.70;99.90
1546;DHT22;766;51.502;9.752;2023-04-21T13:40:15;17.90;99.90
1546;DHT22;766;51.502;9.752;2023-04-21T13:42:45;17.60;99.90
1546;DHT22;766;51.502;9.752;2023-04-21T13:45:14;17.50;99.90
1546;DHT22;766;51.502;9.752;2023-04-21T13:47:43;17.80;99.90
1546;DHT22;766;51.502;9.752;2023-04-21T13:50:12;18.10;99.90
1546;DHT22;766;51.502;9.752;2023-04-21T13:52:41;18.50;99.90
1546;DHT22;766;51.502;9.752;2023-04-21T13:55:09;18.20;99.90
1546;DHT22;766;51.502;9.752;2023-04-21T13:57:38;17.80;99.90
1546;DHT22;766;51.502;9.752;2023-04-21T14:00:09;17.60;99.90
1546;DHT22;766;51.502;9.752;2023-04-21T14:02:38;17.90;99.90
1546;DHT22;766;51.502;9.752;2023-04-21T14:05:08;17.90;99.90
1546;DHT22;766;51.502;9.752;2023-04-21T14:07:37;18.00;99.90
1546;DHT22;766;51.502;9.752;2023-04-21T14:10:06;18.30;99.90
1546;DHT22;766;51.502;9.752;2023-04-21T14:12:35;18.10;99.90
1546;DHT22;766;51.502;9.752;2023-04-21T14:15:05;17.90;99.90
1546;DHT22;766;51.502;9.752;2023-04-21T14:17:35;18.00;99.90
1546;DHT22;766;51.502;9.752;2023-04-21T14:20:04;17.90;99.90
1546;DHT22;766;51.502;9.752;2023-04-21T14:22:35;17.80;99.90
1546;DHT22;766;51.502;9.752;2023-04-21T14:25:04;17.90;99.90
1546;DHT22;766;51.502;9.752;2023-04-21T14:27:33;17.60;99.90
1546;DHT22;766;51.502;9.752;2023-04-21T14:30:02;17.60;99.90
1546;DHT22;766;51.502;9.752;2023-04-21T14:32:31;17.60;99.90
1546;DHT22;766;51.502;9.752;2023-04-21T14:35:05;17.60;99.90
1546;DHT22;766;51.502;9.752;2023-04-21T14:37:33;17.60;99.90
1546;DHT22;766;51.502;9.752;2023-04-21T14:40:01;17.70;99.90
1546;DHT22;766;51.502;9.752;2023-04-21T14:42:30;17.80;99.90
1546;DHT22;766;51.502;9.752;2023-04-21T14:44:58;17.80;99.90
1546;DHT22;766;51.502;9.752;2023-04-21T14:47:27;17.60;99.90
1546;DHT22;766;51.502;9.752;2023-04-21T14:49:55;17.60;99.90
1546;DHT22;766;51.502;9.752;2023-04-21T14:52:26;17.70;99.90
1546;DHT22;766;51.502;9.752;2023-04-21T14:54:54;17.80;99.90
1546;DHT22;766;51.502;9.752;2023-04-21T14:57:23;17.90;99.90
1546;DHT22;766;51.502;9.752;2023-04-21T14:59:52;17.90;99.90
1546;DHT22;766;51.502;9.752;2023-04-21T15:02:20;17.90;99.90
1546;DHT22;766;51.502;9.752;2023-04-21T15:04:49;17.70;99.90
1546;DHT22;766;51.502;9.752;2023-04-21T15:07:17;17.90;99.90
1546;DHT22;766;51.502;9.752;2023-04-21T15:09:52;17.70;99.90
1546;DHT22;766;51.502;9.752;2023-04-21T15:12:21;17.70;99.90
1546;DHT22;766;51.502;9.752;2023-04-21T15:14:50;17.80;99.90
1546;DHT22;766;51.502;9.752;2023-04-21T15:17:18;17.60;99.90
1546;DHT22;766;51.502;9.752;2023-04-21T15:19:46;17.70;99.90
1546;DHT22;766;51.502;9.752;2023-04-21T15:22:15;17.90;99.90
1546;DHT22;766;51.502;9.752;2023-04-21T15:24:44;17.90;99.90
1546;DHT22;766;51.502;9.752;2023-04-21T15:27:14;17.90;99.90
1546;DHT22;766;51.502;9.752;2023-04-21T15:29:43;17.80;99.90
1546;DHT22;766;51.502;9.752;2023-04-21T15:32:12;17.80;99.90
1546;DHT22;766;51.502;9.752;2023-04-21T15:34:41;17.90;99.90
1546;DHT22;766;51.502;9.752;2023-04-21T15:37:09;17.50;99.90
1546;DHT22;766;51.502;9.752;2023-04-21T15:39:37;17.60;99.90
1546;DHT22;766;51.502;9.752;2023-04-21T15:42:07;17.50;99.90
1546;DHT22;766;51.502;9.752;2023-04-21T15:44:37;17.50;99.90
1546;DHT22;766;51.502;9.752;2023-04-21T15:47:05;17.60;99.90
1546;DHT22;766;51.502;9.752;2023-04-21T15:49:34;17.60;99.90
1546;DHT22;766;51.502;9.752;2023-04-21T15:52:03;17.80;99.90
1546;DHT22;766;51.502;9.752;2023-04-21T15:54:33;17.70;99.90
1546;DHT22;766;51.502;9.752;2023-04-21T15:57:02;17.60;99.90
1546;DHT22;766;51.502;9.752;2023-04-21T15:59:34;17.60;99.90
1546;DHT22;766;51.502;9.752;2023-04-21T16:02:04;17.60;99.90
1546;DHT22;766;51.502;9.752;2023-04-21T16:04:32;17.50;99.90
1546;DHT22;766;51.502;9.752;2023-04-21T16:07:01;17.60;99.90
1546;DHT22;766;51.502;9.752;2023-04-21T16:09:29;17.70;99.90
1546;DHT22;766;51.502;9.752;2023-04-21T16:11:58;17.80;99.90
1546;DHT22;766;51.502;9.752;2023-04-21T16:14:27;17.90;99.90
1546;DHT22;766;51.502;9.752;2023-04-21T16:17:10;17.90;99.90
1546;DHT22;766;51.502;9.752;2023-04-21T16:19:39;17.90;99.90
1546;DHT22;766;51.502;9.752;2023-04-21T16:22:08;17.70;99.90
1546;DHT22;766;51.502;9.752;2023-04-21T16:24:37;17.80;99.90
1546;DHT22;766;51.502;9.752;2023-04-21T16:27:06;17.70;99.90
1546;DHT22;766;51.502;9.752;2023-04-21T16:29:34;17.70;99.90
1546;DHT22;766;51.502;9.752;2023-04-21T16:32:02;17.60;99.90
1546;DHT22;766;51.502;9.752;2023-04-21T16:34:32;17.60;99.90
1546;DHT22;766;51.502;9.752;2023-04-21T16:37:01;17.60;99.90
1546;DHT22;766;51.502;9.752;2023-04-21T16:39:30;17.50;99.90
1546;DHT22;766;51.502;9.752;2023-04-21T16:41:58;17.40;99.90
1546;DHT22;766;51.502;9.752;2023-04-21T16:44:27;17.40;99.90
1546;DHT22;766;51.502;9.752;2023-04-21T16:46:55;17.40;99.90
1546;DHT22;766;51.502;9.752;2023-04-21T16:49:24;17.30;99.90
1546;DHT22;766;51.502;9.752;2023-04-21T16:51:54;17.40;99.90
1546;DHT22;766;51.502;9.752;2023-04-21T16:54:23;17.30;99.90